createdAt,value
2023-04-27T00:02:25.553Z,101307.78
2023-04-27T00:04:58.656Z,101302.25
2023-04-27T00:07:31.479Z,101312.66
2023-04-27T00:10:02.278Z,101304.75
2023-04-27T00:12:32.329Z,101285.78
2023-04-27T00:15:02.490Z,101303.69
2023-04-27T00:17:32.550Z,101302.44
2023-04-27T00:20:12.044Z,101306.19
2023-04-27T00:22:42.664Z,101290.97
2023-04-27T00:25:13.425Z,101307.78
2023-04-27T00:27:43.616Z,101304.03
2023-04-27T00:30:15.861Z,101298.13
2023-04-27T00:32:48.981Z,101280.28
2023-04-27T00:35:22.989Z,101301.38
2023-04-27T00:37:55.655Z,101291.16
2023-04-27T00:40:25.802Z,101303.31
2023-04-27T00:42:59.030Z,101309.94
2023-04-27T00:45:31.514Z,101304.41
2023-04-27T00:48:02.804Z,101303.50
2023-04-27T00:50:42.173Z,101305.63
2023-04-27T00:53:14.944Z,101303.13
2023-04-27T00:55:48.639Z,101308.34
2023-04-27T00:58:19.333Z,101309.56
2023-04-27T01:00:49.466Z,101307.44
2023-04-27T01:03:21.559Z,101307.97
2023-04-27T01:05:54.644Z,101307.59
2023-04-27T01:08:30.936Z,101308.31
2023-04-27T01:11:01.144Z,101313.50
2023-04-27T01:13:31.149Z,101307.59
2023-04-27T01:16:01.340Z,101305.94
2023-04-27T01:18:33.815Z,101314.16
2023-04-27T01:21:07.551Z,101313.03
2023-04-27T01:23:41.127Z,101316.06
2023-04-27T01:26:13.765Z,101319.06
2023-04-27T01:28:44.982Z,101310.09
2023-04-27T01:31:15.384Z,101332.94
2023-04-27T01:33:45.742Z,101340.94
2023-04-27T01:36:17.622Z,101338.41
2023-04-27T01:38:51.361Z,101338.91
2023-04-27T01:41:21.565Z,101344.06
2023-04-27T01:43:51.652Z,101346.72
2023-04-27T01:46:22.405Z,101350.97
2023-04-27T01:48:53.812Z,101355.28
2023-04-27T01:51:23.980Z,101365.03
2023-04-27T01:53:57.057Z,101360.00
2023-04-27T01:56:27.164Z,101370.50
2023-04-27T01:59:01.461Z,101387.44
2023-04-27T02:01:33.869Z,101381.47
2023-04-27T02:04:04.425Z,101384.47
2023-04-27T02:06:35.822Z,101387.69
2023-04-27T02:09:24.759Z,101395.31
2023-04-27T02:11:58.193Z,101402.03
2023-04-27T02:14:29.194Z,101394.38
2023-04-27T02:17:00.296Z,101395.56
2023-04-27T02:19:31.276Z,101398.19
2023-04-27T02:22:01.696Z,101402.63
2023-04-27T02:24:38.340Z,101399.72
2023-04-27T02:27:10.463Z,101399.84
2023-04-27T02:29:41.698Z,101399.16
2023-04-27T02:32:14.689Z,101406.44
2023-04-27T02:34:46.081Z,101402.16
2023-04-27T02:37:19.113Z,101397.88
2023-04-27T02:39:52.472Z,101403.06
2023-04-27T02:42:26.339Z,101401.78
2023-04-27T02:44:58.136Z,101401.00
2023-04-27T02:47:28.224Z,101396.16
2023-04-27T02:49:58.366Z,101398.81
2023-04-27T02:52:32.280Z,101392.94
2023-04-27T02:55:04.958Z,101385.09
2023-04-27T02:57:35.031Z,101378.16
2023-04-27T03:00:05.540Z,101395.88
2023-04-27T03:02:38.736Z,101391.91
2023-04-27T03:05:10.214Z,101390.50
2023-04-27T03:07:40.430Z,101381.03
2023-04-27T03:10:14.236Z,101384.09
2023-04-27T03:12:44.438Z,101395.88
2023-04-27T03:15:14.699Z,101384.72
2023-04-27T03:17:45.375Z,101395.50
2023-04-27T03:20:16.455Z,101379.25
2023-04-27T03:22:47.206Z,101385.88
2023-04-27T03:25:20.016Z,101395.50
2023-04-27T03:27:50.130Z,101395.09
2023-04-27T03:30:20.368Z,101397.88
2023-04-27T03:32:52.395Z,101392.91
2023-04-27T03:35:22.564Z,101397.69
2023-04-27T03:37:53.378Z,101397.81
2023-04-27T03:40:27.035Z,101404.91
2023-04-27T03:42:59.004Z,101409.31
2023-04-27T03:45:38.887Z,101413.38
2023-04-27T03:48:12.024Z,101423.00
2023-04-27T03:50:42.382Z,101416.53
2023-04-27T03:53:14.434Z,101418.31
2023-04-27T03:55:48.211Z,101424.31
2023-04-27T03:58:19.900Z,101420.72
2023-04-27T04:01:12.439Z,101428.81
2023-04-27T04:03:43.017Z,101430.63
2023-04-27T04:06:13.418Z,101412.66
2023-04-27T04:08:43.648Z,101422.91
2023-04-27T04:11:23.574Z,101418.44
2023-04-27T04:13:57.368Z,101409.50
2023-04-27T04:16:38.148Z,101428.72
2023-04-27T04:19:08.418Z,101413.66
2023-04-27T04:21:38.529Z,101440.28
2023-04-27T04:24:10.396Z,101408.69
2023-04-27T04:26:47.409Z,101430.81
2023-04-27T04:29:25.253Z,101422.13
2023-04-27T04:31:55.470Z,101435.09
2023-04-27T04:34:29.396Z,101440.88
2023-04-27T04:37:02.506Z,101433.72
2023-04-27T04:39:34.394Z,101433.00
2023-04-27T04:42:08.492Z,101431.41
2023-04-27T04:44:46.313Z,101433.09
2023-04-27T04:47:18.048Z,101431.41
2023-04-27T04:49:58.301Z,101392.84
2023-04-27T04:52:32.425Z,101440.16
2023-04-27T04:55:02.512Z,101437.69
2023-04-27T04:57:36.197Z,101446.06
2023-04-27T05:00:11.827Z,101413.19
2023-04-27T05:02:42.522Z,101441.06
2023-04-27T05:05:13.143Z,101442.38
2023-04-27T05:07:53.122Z,101451.53
2023-04-27T05:10:23.101Z,101456.91
2023-04-27T05:12:56.458Z,101458.63
2023-04-27T05:15:26.730Z,101444.94
2023-04-27T05:17:57.129Z,101456.78
2023-04-27T05:20:27.265Z,101453.78
2023-04-27T05:22:57.407Z,101441.91
2023-04-27T05:25:27.454Z,101452.22
2023-04-27T05:28:00.725Z,101447.78
2023-04-27T05:30:31.050Z,101441.09
2023-04-27T05:33:01.195Z,101434.50
2023-04-27T05:35:33.486Z,101444.56
2023-04-27T05:38:04.184Z,101450.09
2023-04-27T05:40:34.320Z,101452.00
2023-04-27T05:43:07.619Z,101449.16
2023-04-27T05:45:42.465Z,101454.16
2023-04-27T05:48:12.653Z,101454.06
2023-04-27T05:50:42.739Z,101454.97
2023-04-27T05:53:12.923Z,101458.66
2023-04-27T05:55:43.433Z,101459.91
2023-04-27T05:58:16.425Z,101466.84
2023-04-27T06:00:47.317Z,101464.97
2023-04-27T06:03:17.584Z,101461.41
2023-04-27T06:05:47.968Z,101464.22
2023-04-27T06:08:19.432Z,101464.00
2023-04-27T06:10:49.469Z,101433.91
2023-04-27T06:13:22.474Z,101454.72
2023-04-27T06:15:52.596Z,101476.16
2023-04-27T06:18:23.674Z,101471.75
2023-04-27T06:20:54.009Z,101463.44
2023-04-27T06:23:24.226Z,101489.09
2023-04-27T06:25:54.407Z,101483.88
2023-04-27T06:28:27.404Z,101481.44
2023-04-27T06:30:57.646Z,101496.53
2023-04-27T06:33:27.882Z,101496.97
2023-04-27T06:35:58.598Z,101491.47
2023-04-27T06:38:28.693Z,101494.53
2023-04-27T06:40:59.459Z,101501.34
2023-04-27T06:43:33.879Z,101495.28
2023-04-27T06:46:04.239Z,101492.13
2023-04-27T06:48:34.352Z,101484.47
2023-04-27T06:51:04.529Z,101506.66
2023-04-27T06:53:34.541Z,101499.50
2023-04-27T06:56:04.966Z,101510.09
2023-04-27T06:58:37.848Z,101514.44
2023-04-27T07:01:07.996Z,101497.09
2023-04-27T07:03:38.787Z,101508.75
2023-04-27T07:06:09.173Z,101512.50
2023-04-27T07:08:39.391Z,101502.09
2023-04-27T07:11:09.545Z,101507.66
2023-04-27T07:13:42.700Z,101499.97
2023-04-27T07:16:13.094Z,101510.16
2023-04-27T07:18:43.667Z,101503.53
2023-04-27T07:21:14.036Z,101516.25
2023-04-27T07:23:44.197Z,101514.59
2023-04-27T07:26:14.247Z,101502.34
2023-04-27T07:28:47.416Z,101496.94
2023-04-27T07:31:17.915Z,101496.03
2023-04-27T07:33:48.128Z,101504.16
2023-04-27T07:36:18.260Z,101508.09
2023-04-27T07:38:48.766Z,101501.69
2023-04-27T07:41:20.445Z,101511.50
2023-04-27T07:43:53.090Z,101514.00
2023-04-27T07:46:23.356Z,101510.47
2023-04-27T07:48:55.390Z,101511.13
2023-04-27T07:51:25.414Z,101513.53
2023-04-27T07:53:55.660Z,101512.06
2023-04-27T07:56:25.880Z,101509.63
2023-04-27T07:58:58.674Z,101511.00
2023-04-27T08:01:28.870Z,101509.66
2023-04-27T08:03:59.732Z,101500.63
2023-04-27T08:06:31.630Z,101492.78
2023-04-27T08:09:04.301Z,101502.50
2023-04-27T08:11:34.819Z,101478.34
2023-04-27T08:14:13.522Z,101507.81
2023-04-27T08:16:44.150Z,101511.53
2023-04-27T08:19:14.721Z,101504.09
2023-04-27T08:21:53.963Z,101476.09
2023-04-27T08:24:24.052Z,101489.63
2023-04-27T08:26:57.610Z,101497.13
2023-04-27T08:29:30.647Z,101488.94
2023-04-27T08:32:05.357Z,101489.84
2023-04-27T08:34:35.477Z,101495.31
2023-04-27T08:37:05.619Z,101500.50
2023-04-27T08:39:35.694Z,101487.09
2023-04-27T08:42:13.885Z,101494.56
2023-04-27T08:44:47.515Z,101491.59
2023-04-27T08:47:28.314Z,101486.34
2023-04-27T08:50:06.159Z,101489.69
2023-04-27T08:52:36.225Z,101480.75
2023-04-27T08:55:09.576Z,101475.53
2023-04-27T08:57:39.894Z,101459.16
2023-04-27T09:00:15.392Z,101472.13
2023-04-27T09:02:50.147Z,101472.13
2023-04-27T09:05:20.742Z,101479.13
2023-04-27T09:08:05.920Z,101478.16
2023-04-27T09:10:47.050Z,101478.59
2023-04-27T09:13:17.845Z,101477.66
2023-04-27T09:15:53.576Z,101479.03
2023-04-27T09:18:24.962Z,101477.03
2023-04-27T09:20:58.344Z,101469.13
2023-04-27T09:23:32.017Z,101473.34
2023-04-27T09:26:08.335Z,101478.66
2023-04-27T09:28:41.540Z,101479.84
2023-04-27T09:31:36.877Z,101475.47
2023-04-27T09:34:10.384Z,101477.19
2023-04-27T09:36:42.913Z,101469.88
2023-04-27T09:39:13.328Z,101466.22
2023-04-27T09:41:43.913Z,101468.44
2023-04-27T09:44:18.346Z,101464.59
2023-04-27T09:46:54.522Z,101459.78
2023-04-27T09:49:26.522Z,101459.50
2023-04-27T09:51:59.138Z,101458.38
2023-04-27T09:54:33.172Z,101464.66
2023-04-27T09:57:18.517Z,101464.25
2023-04-27T10:00:11.339Z,101458.81
2023-04-27T10:03:00.042Z,101451.19
2023-04-27T10:06:00.295Z,101464.50
2023-04-27T10:08:32.092Z,101463.94
2023-04-27T10:11:02.110Z,101456.94
2023-04-27T10:13:34.871Z,101459.59
2023-04-27T10:16:21.223Z,101468.06
2023-04-27T10:19:03.628Z,101457.44
2023-04-27T10:21:33.941Z,101464.09
2023-04-27T10:24:11.389Z,101462.38
2023-04-27T10:26:51.867Z,101453.75
2023-04-27T10:29:21.962Z,101457.16
2023-04-27T10:31:55.821Z,101452.69
2023-04-27T10:34:31.430Z,101453.13
2023-04-27T10:37:09.007Z,101448.06
2023-04-27T10:39:48.632Z,101451.09
2023-04-27T10:42:30.234Z,101449.38
2023-04-27T10:45:01.125Z,101442.47
2023-04-27T10:47:41.237Z,101443.28
2023-04-27T10:50:16.697Z,101440.47
2023-04-27T10:52:47.384Z,101445.94
2023-04-27T10:55:19.051Z,101439.72
2023-04-27T10:57:51.156Z,101442.50
2023-04-27T11:00:32.022Z,101441.06
2023-04-27T11:03:17.585Z,101441.38
2023-04-27T11:05:51.927Z,101436.59
2023-04-27T11:08:22.514Z,101433.09
2023-04-27T11:10:54.026Z,101429.97
2023-04-27T11:13:26.282Z,101426.41
2023-04-27T11:15:58.481Z,101428.13
2023-04-27T11:18:30.797Z,101406.91
2023-04-27T11:21:13.117Z,101432.81
2023-04-27T11:23:44.480Z,101431.41
2023-04-27T11:26:16.287Z,101438.81
2023-04-27T11:28:47.775Z,101439.84
2023-04-27T11:31:17.866Z,101440.16
2023-04-27T11:33:56.023Z,101434.06
2023-04-27T11:36:29.092Z,101410.00
2023-04-27T11:39:06.623Z,101418.31
2023-04-27T11:41:46.572Z,101422.41
2023-04-27T11:44:16.742Z,101432.94
2023-04-27T11:46:48.277Z,101435.34
2023-04-27T11:49:18.664Z,101438.41
2023-04-27T11:51:54.598Z,101419.34
2023-04-27T11:54:31.825Z,101434.47
2023-04-27T11:57:08.972Z,101421.69
2023-04-27T11:59:39.248Z,101423.88
2023-04-27T12:02:10.352Z,101403.44
2023-04-27T12:04:43.348Z,101419.75
2023-04-27T12:07:16.144Z,101426.19
2023-04-27T12:09:46.339Z,101419.78
2023-04-27T12:12:18.497Z,101427.03
2023-04-27T12:14:50.822Z,101419.06
2023-04-27T12:17:22.710Z,101411.16
2023-04-27T12:19:52.807Z,101409.31
2023-04-27T12:22:29.023Z,101409.47
2023-04-27T12:24:59.829Z,101406.16
2023-04-27T12:27:30.022Z,101410.19
2023-04-27T12:30:01.564Z,101406.94
2023-04-27T12:32:32.061Z,101403.31
2023-04-27T12:35:02.137Z,101398.41
2023-04-27T12:37:37.367Z,101396.13
2023-04-27T12:40:16.838Z,101403.22
2023-04-27T12:42:47.799Z,101402.44
2023-04-27T12:45:19.866Z,101396.22
2023-04-27T12:48:03.350Z,101386.34
2023-04-27T12:50:35.419Z,101396.78
2023-04-27T12:53:08.040Z,101395.63
2023-04-27T12:55:38.395Z,101385.41
2023-04-27T12:58:16.391Z,101387.81
2023-04-27T13:00:52.167Z,101390.34
2023-04-27T13:03:23.844Z,101388.63
2023-04-27T13:05:56.460Z,101390.59
2023-04-27T13:08:31.398Z,101390.75
2023-04-27T13:11:01.658Z,101385.25
2023-04-27T13:13:32.833Z,101384.69
2023-04-27T13:16:04.731Z,101387.06
2023-04-27T13:18:37.026Z,101383.69
2023-04-27T13:21:25.249Z,101392.53
2023-04-27T13:24:00.364Z,101394.94
2023-04-27T13:26:31.225Z,101366.56
2023-04-27T13:29:03.750Z,101389.78
2023-04-27T13:31:35.165Z,101381.75
2023-04-27T13:34:07.195Z,101388.72
2023-04-27T13:36:37.244Z,101364.41
2023-04-27T13:39:10.369Z,101390.75
2023-04-27T13:41:40.450Z,101386.81
2023-04-27T13:44:10.991Z,101387.41
2023-04-27T13:46:42.539Z,101377.94
2023-04-27T13:49:12.979Z,101374.06
2023-04-27T13:51:43.277Z,101382.16
2023-04-27T13:54:16.546Z,101382.75
2023-04-27T13:56:55.222Z,101380.13
2023-04-27T13:59:25.703Z,101378.47
2023-04-27T14:01:56.405Z,101371.50
2023-04-27T14:04:26.487Z,101377.03
2023-04-27T14:06:56.775Z,101370.47
2023-04-27T14:09:30.362Z,101369.72
2023-04-27T14:12:02.909Z,101361.91
2023-04-27T14:14:33.114Z,101360.72
2023-04-27T14:17:17.722Z,101363.94
2023-04-27T14:19:47.724Z,101357.66
2023-04-27T14:22:20.142Z,101355.88
2023-04-27T14:24:53.012Z,101354.94
2023-04-27T14:27:25.429Z,101342.19
2023-04-27T14:29:55.558Z,101349.53
2023-04-27T14:32:25.970Z,101346.00
2023-04-27T14:35:00.004Z,101341.41
2023-04-27T14:37:30.126Z,101348.25
2023-04-27T14:40:12.322Z,101344.75
2023-04-27T14:42:42.488Z,101337.97
2023-04-27T14:45:13.633Z,101333.03
2023-04-27T14:47:45.175Z,101339.41
2023-04-27T14:50:15.734Z,101326.31
2023-04-27T14:52:46.166Z,101328.31
2023-04-27T14:55:18.941Z,101303.28
2023-04-27T14:57:49.294Z,101324.59
2023-04-27T15:00:20.322Z,101321.28
2023-04-27T15:02:50.639Z,101313.22
2023-04-27T15:05:20.854Z,101311.31
2023-04-27T15:07:50.976Z,101319.78
2023-04-27T15:10:23.798Z,101320.91
2023-04-27T15:12:53.944Z,101312.28
2023-04-27T15:15:24.715Z,101314.72
2023-04-27T15:17:54.782Z,101313.31
2023-04-27T15:20:24.783Z,101280.41
2023-04-27T15:22:54.874Z,101308.75
2023-04-27T15:25:29.721Z,101314.78
2023-04-27T15:28:03.770Z,101304.38
2023-04-27T15:30:35.627Z,101302.81
2023-04-27T15:33:10.385Z,101306.59
2023-04-27T15:35:43.538Z,101305.78
2023-04-27T15:38:15.306Z,101309.72
2023-04-27T15:40:49.174Z,101306.34
2023-04-27T15:43:19.253Z,101298.34
2023-04-27T15:45:49.260Z,101297.97
2023-04-27T15:48:19.392Z,101302.75
2023-04-27T15:50:49.759Z,101292.31
2023-04-27T15:53:19.955Z,101299.16
2023-04-27T15:55:52.664Z,101290.63
2023-04-27T15:58:22.919Z,101289.84
2023-04-27T16:00:53.186Z,101287.66
2023-04-27T16:03:23.505Z,101287.66
2023-04-27T16:06:03.867Z,101283.63
2023-04-27T16:08:36.849Z,101281.91
2023-04-27T16:11:11.678Z,101284.91
2023-04-27T16:13:42.077Z,101245.78
2023-04-27T16:16:18.877Z,101279.41
2023-04-27T16:18:51.362Z,101265.53
2023-04-27T16:21:21.695Z,101266.16
2023-04-27T16:23:52.287Z,101276.88
2023-04-27T16:26:27.772Z,101272.66
2023-04-27T16:29:01.032Z,101269.63
2023-04-27T16:31:32.761Z,101262.28
2023-04-27T16:34:05.199Z,101262.44
2023-04-27T16:36:35.551Z,101262.91
2023-04-27T16:39:06.152Z,101262.59
2023-04-27T16:41:47.958Z,101254.22
2023-04-27T16:44:18.411Z,101267.50
2023-04-27T16:46:48.963Z,101267.56
2023-04-27T16:49:19.025Z,101257.31
2023-04-27T16:51:49.135Z,101286.31
2023-04-27T16:54:20.757Z,101280.63
2023-04-27T16:56:55.102Z,101283.34
2023-04-27T16:59:35.347Z,101279.75
2023-04-27T17:02:16.966Z,101276.97
2023-04-27T17:04:54.483Z,101279.22
2023-04-27T17:07:25.705Z,101281.56
2023-04-27T17:09:56.339Z,101276.22
2023-04-27T17:12:29.154Z,101278.31
2023-04-27T17:15:01.736Z,101279.22
2023-04-27T17:17:33.836Z,101280.53
2023-04-27T17:20:07.370Z,101273.13
2023-04-27T17:22:37.569Z,101269.69
2023-04-27T17:25:11.959Z,101270.13
2023-04-27T17:27:44.631Z,101261.69
2023-04-27T17:30:16.920Z,101262.56
2023-04-27T17:32:47.161Z,101269.41
2023-04-27T17:35:19.543Z,101267.63
2023-04-27T17:37:49.588Z,101257.97
2023-04-27T17:40:21.164Z,101258.00
2023-04-27T17:42:56.528Z,101254.88
2023-04-27T17:45:36.270Z,101258.44
2023-04-27T17:48:12.770Z,101266.59
2023-04-27T17:50:42.969Z,101268.06
2023-04-27T17:53:13.084Z,101264.38
2023-04-27T17:55:47.992Z,101264.09
2023-04-27T17:58:21.614Z,101258.13
2023-04-27T18:00:54.876Z,101256.34
2023-04-27T18:03:27.147Z,101259.03
2023-04-27T18:06:00.236Z,101252.47
2023-04-27T18:08:30.569Z,101230.22
2023-04-27T18:11:01.192Z,101247.13
2023-04-27T18:13:33.968Z,101245.66
2023-04-27T18:16:06.033Z,101242.94
2023-04-27T18:18:36.222Z,101231.97
2023-04-27T18:21:06.929Z,101247.09
2023-04-27T18:23:38.965Z,101241.84
2023-04-27T18:26:11.638Z,101245.84
2023-04-27T18:28:44.425Z,101247.03
2023-04-27T18:31:18.350Z,101249.81
2023-04-27T18:33:49.275Z,101255.88
2023-04-27T18:36:19.884Z,101246.66
2023-04-27T18:38:51.126Z,101253.91
2023-04-27T18:41:21.307Z,101263.69
2023-04-27T18:43:54.928Z,101263.06
2023-04-27T18:46:25.097Z,101262.00
2023-04-27T18:48:55.170Z,101268.22
2023-04-27T18:51:29.232Z,101275.63
2023-04-27T18:53:59.312Z,101263.13
2023-04-27T18:56:29.562Z,101261.94
2023-04-27T18:59:02.912Z,101258.63
2023-04-27T19:01:38.100Z,101263.09
2023-04-27T19:04:08.820Z,101254.00
2023-04-27T19:06:39.120Z,101262.75
2023-04-27T19:09:10.298Z,101265.00
2023-04-27T19:11:41.200Z,101257.69
2023-04-27T19:14:14.619Z,101261.19
2023-04-27T19:16:45.140Z,101251.09
2023-04-27T19:19:15.617Z,101259.50
2023-04-27T19:21:47.551Z,101249.56
2023-04-27T19:24:17.685Z,101258.72
2023-04-27T19:26:48.587Z,101255.00
2023-04-27T19:29:22.438Z,101257.63
2023-04-27T19:31:53.141Z,101249.44
2023-04-27T19:34:24.182Z,101246.63
2023-04-27T19:36:54.417Z,101243.75
2023-04-27T19:39:25.441Z,101247.03
2023-04-27T19:41:56.768Z,101252.16
2023-04-27T19:44:29.924Z,101206.81
2023-04-27T19:47:03.360Z,101245.09
2023-04-27T19:49:36.820Z,101245.09
2023-04-27T19:52:08.459Z,101245.53
2023-04-27T19:54:39.677Z,101243.00
2023-04-27T19:57:10.077Z,101248.03
2023-04-27T19:59:42.907Z,101243.16
2023-04-27T20:02:13.328Z,101250.13
2023-04-27T20:04:43.848Z,101251.19
2023-04-27T20:07:14.148Z,101245.69
2023-04-27T20:09:44.502Z,101243.31
2023-04-27T20:12:29.283Z,101253.38
2023-04-27T20:15:08.260Z,101243.00
2023-04-27T20:17:38.580Z,101243.41
2023-04-27T20:20:12.565Z,101225.03
2023-04-27T20:22:43.538Z,101250.47
2023-04-27T20:25:14.898Z,101251.75
2023-04-27T20:27:45.246Z,101257.00
2023-04-27T20:30:20.256Z,101252.88
2023-04-27T20:32:50.426Z,101251.84
2023-04-27T20:35:20.598Z,101255.81
2023-04-27T20:37:54.196Z,101251.19
2023-04-27T20:40:32.151Z,101253.19
2023-04-27T20:43:02.238Z,101250.53
2023-04-27T20:45:37.294Z,101237.28
2023-04-27T20:48:12.162Z,101241.09
2023-04-27T20:50:42.770Z,101237.22
2023-04-27T20:53:13.024Z,101241.00
2023-04-27T20:55:43.340Z,101234.75
2023-04-27T20:58:13.433Z,101240.38
2023-04-27T21:00:46.591Z,101235.75
2023-04-27T21:03:16.878Z,101235.25
2023-04-27T21:05:49.225Z,101227.78
2023-04-27T21:08:28.116Z,101224.22
2023-04-27T21:10:58.426Z,101225.66
2023-04-27T21:13:31.462Z,101203.03
2023-04-27T21:16:05.162Z,101221.94
2023-04-27T21:18:35.737Z,101225.00
2023-04-27T21:21:07.499Z,101215.50
2023-04-27T21:23:38.507Z,101209.91
2023-04-27T21:26:12.697Z,101225.09
2023-04-27T21:28:47.658Z,101217.72
2023-04-27T21:31:20.964Z,101175.56
2023-04-27T21:33:53.160Z,101208.31
2023-04-27T21:36:23.493Z,101207.25
2023-04-27T21:38:54.207Z,101206.38
2023-04-27T21:41:25.992Z,101197.06
2023-04-27T21:43:56.949Z,101213.75
2023-04-27T21:46:29.964Z,101192.50
2023-04-27T21:49:00.053Z,101213.97
2023-04-27T21:51:30.151Z,101203.41
2023-04-27T21:54:00.146Z,101207.97
2023-04-27T21:56:30.508Z,101205.25
2023-04-27T21:59:00.547Z,101208.19
2023-04-27T22:01:33.370Z,101210.19
2023-04-27T22:04:04.268Z,101208.25
2023-04-27T22:06:38.178Z,101206.13
2023-04-27T22:09:08.702Z,101202.22
2023-04-27T22:11:42.590Z,101192.56
2023-04-27T22:14:14.465Z,101195.81
2023-04-27T22:16:49.055Z,101189.91
2023-04-27T22:19:20.108Z,101187.78
2023-04-27T22:21:50.120Z,101185.13
2023-04-27T22:24:20.600Z,101172.03
2023-04-27T22:26:51.005Z,101176.91
2023-04-27T22:29:22.034Z,101175.84
2023-04-27T22:31:55.390Z,101168.16
2023-04-27T22:34:26.355Z,101156.59
2023-04-27T22:36:57.113Z,101156.22
2023-04-27T22:39:29.181Z,101155.00
2023-04-27T22:41:59.415Z,101161.63
2023-04-27T22:44:29.623Z,101155.78
2023-04-27T22:47:02.838Z,101150.97
2023-04-27T22:49:34.508Z,101145.81
2023-04-27T22:52:04.898Z,101144.59
2023-04-27T22:54:35.225Z,101139.59
2023-04-27T22:57:08.268Z,101144.81
2023-04-27T22:59:38.393Z,101129.28
2023-04-27T23:02:11.579Z,101145.78
2023-04-27T23:04:41.697Z,101141.63
2023-04-27T23:07:12.126Z,101138.41
2023-04-27T23:09:42.870Z,101141.47
2023-04-27T23:12:12.881Z,101137.00
2023-04-27T23:14:43.014Z,101130.38
2023-04-27T23:17:15.755Z,101123.75
2023-04-27T23:19:46.951Z,101123.91
2023-04-27T23:22:16.865Z,101121.94
2023-04-27T23:24:47.163Z,101124.25
2023-04-27T23:27:17.286Z,101111.56
2023-04-27T23:29:47.378Z,101111.25
2023-04-27T23:32:20.215Z,101117.69
2023-04-27T23:34:50.648Z,101110.00
2023-04-27T23:37:22.567Z,101113.97
2023-04-27T23:39:52.753Z,101105.75
2023-04-27T23:42:22.931Z,101099.31
2023-04-27T23:44:53.836Z,101106.09
2023-04-27T23:47:27.893Z,101096.06
2023-04-27T23:49:58.151Z,101099.63
2023-04-27T23:52:30.278Z,101091.03
2023-04-27T23:55:01.224Z,101064.13
2023-04-27T23:57:31.434Z,101084.59
